sensor_id;sensor_type;location;lat;lon;timestamp;P1;durP1;ratioP1;P2;durP2;ratioP2
22270;SDS011;11304;53.520;10.104;2024-01-15T00:02:19;9.88;;;1.92;;
22270;SDS011;11304;53.520;10.104;2024-01-15T00:04:45;10.70;;;1.40;;
22270;SDS011;11304;53.520;10.104;2024-01-15T00:07:11;9.07;;;1.38;;
22270;SDS011;11304;53.520;10.104;2024-01-15T00:09:37;15.48;;;1.88;;
22270;SDS011;11304;53.520;10.104;2024-01-15T00:12:03;9.65;;;1.75;;
22270;SDS011;11304;53.520;10.104;2024-01-15T00:14:29;12.02;;;1.73;;
22270;SDS011;11304;53.520;10.104;2024-01-15T00:16:55;11.10;;;1.70;;
22270;SDS011;11304;53.520;10.104;2024-01-15T00:19:21;12.43;;;1.48;;
22270;SDS011;11304;53.520;10.104;2024-01-15T00:21:48;10.45;;;1.65;;
22270;SDS011;11304;53.520;10.104;2024-01-15T00:24:15;9.80;;;1.77;;
22270;SDS011;11304;53.520;10.104;2024-01-15T00:26:41;10.52;;;1.83;;
22270;SDS011;11304;53.520;10.104;2024-01-15T00:29:07;16.58;;;2.00;;
22270;SDS011;11304;53.520;10.104;2024-01-15T00:31:33;14.13;;;2.65;;
22270;SDS011;11304;53.520;10.104;2024-01-15T00:33:59;17.73;;;2.03;;
22270;SDS011;11304;53.520;10.104;2024-01-15T00:36:25;14.50;;;2.15;;
22270;SDS011;11304;53.520;10.104;2024-01-15T00:38:52;9.60;;;1.70;;
22270;SDS011;11304;53.520;10.104;2024-01-15T00:41:18;12.60;;;1.95;;
22270;SDS011;11304;53.520;10.104;2024-01-15T00:43:47;15.27;;;2.72;;
22270;SDS011;11304;53.520;10.104;2024-01-15T00:46:16;10.02;;;2.00;;
22270;SDS011;11304;53.520;10.104;2024-01-15T00:48:42;12.40;;;2.03;;
22270;SDS011;11304;53.520;10.104;2024-01-15T00:51:08;12.80;;;1.65;;
22270;SDS011;11304;53.520;10.104;2024-01-15T00:53:34;11.35;;;1.83;;
22270;SDS011;11304;53.520;10.104;2024-01-15T00:56:00;11.15;;;1.77;;
22270;SDS011;11304;53.520;10.104;2024-01-15T00:58:28;9.82;;;2.00;;
22270;SDS011;11304;53.520;10.104;2024-01-15T01:00:54;11.48;;;2.10;;
22270;SDS011;11304;53.520;10.104;2024-01-15T01:03:20;13.52;;;2.05;;
22270;SDS011;11304;53.520;10.104;2024-01-15T01:05:49;11.48;;;1.92;;
22270;SDS011;11304;53.520;10.104;2024-01-15T01:08:16;11.57;;;1.73;;
22270;SDS011;11304;53.520;10.104;2024-01-15T01:10:42;12.32;;;2.28;;
22270;SDS011;11304;53.520;10.104;2024-01-15T01:13:08;12.45;;;2.22;;
22270;SDS011;11304;53.520;10.104;2024-01-15T01:15:34;18.63;;;2.45;;
22270;SDS011;11304;53.520;10.104;2024-01-15T01:18:00;19.50;;;2.20;;
22270;SDS011;11304;53.520;10.104;2024-01-15T01:20:26;16.45;;;2.35;;
22270;SDS011;11304;53.520;10.104;2024-01-15T01:22:52;14.20;;;2.72;;
22270;SDS011;11304;53.520;10.104;2024-01-15T01:25:18;17.77;;;2.55;;
22270;SDS011;11304;53.520;10.104;2024-01-15T01:27:44;15.65;;;2.80;;
22270;SDS011;11304;53.520;10.104;2024-01-15T01:30:10;16.27;;;2.33;;
22270;SDS011;11304;53.520;10.104;2024-01-15T01:32:37;12.75;;;2.40;;
22270;SDS011;11304;53.520;10.104;2024-01-15T01:35:03;15.52;;;2.47;;
22270;SDS011;11304;53.520;10.104;2024-01-15T01:37:29;12.10;;;2.05;;
22270;SDS011;11304;53.520;10.104;2024-01-15T01:39:55;16.63;;;2.75;;
22270;SDS011;11304;53.520;10.104;2024-01-15T01:42:21;16.70;;;1.88;;
22270;SDS011;11304;53.520;10.104;2024-01-15T01:44:47;15.75;;;2.97;;
22270;SDS011;11304;53.520;10.104;2024-01-15T01:47:13;14.20;;;1.75;;
22270;SDS011;11304;53.520;10.104;2024-01-15T01:49:40;13.73;;;2.13;;
22270;SDS011;11304;53.520;10.104;2024-01-15T01:52:06;16.33;;;2.35;;
22270;SDS011;11304;53.520;10.104;2024-01-15T01:54:32;9.48;;;1.80;;
22270;SDS011;11304;53.520;10.104;2024-01-15T01:56:58;17.45;;;1.92;;
22270;SDS011;11304;53.520;10.104;2024-01-15T01:59:28;13.65;;;2.63;;
22270;SDS011;11304;53.520;10.104;2024-01-15T02:01:54;11.00;;;2.20;;
22270;SDS011;11304;53.520;10.104;2024-01-15T02:04:22;10.68;;;1.70;;
22270;SDS011;11304;53.520;10.104;2024-01-15T02:06:49;12.60;;;2.53;;
22270;SDS011;11304;53.520;10.104;2024-01-15T02:09:16;16.98;;;2.40;;
22270;SDS011;11304;53.520;10.104;2024-01-15T02:11:42;9.88;;;2.33;;
22270;SDS011;11304;53.520;10.104;2024-01-15T02:14:09;11.20;;;1.65;;
22270;SDS011;11304;53.520;10.104;2024-01-15T02:16:35;11.90;;;2.05;;
22270;SDS011;11304;53.520;10.104;2024-01-15T02:19:01;9.38;;;1.75;;
22270;SDS011;11304;53.520;10.104;2024-01-15T02:21:27;14.88;;;2.33;;
22270;SDS011;11304;53.520;10.104;2024-01-15T02:23:54;7.53;;;1.70;;
22270;SDS011;11304;53.520;10.104;2024-01-15T02:26:20;8.40;;;1.50;;
22270;SDS011;11304;53.520;10.104;2024-01-15T02:28:47;9.13;;;1.20;;
22270;SDS011;11304;53.520;10.104;2024-01-15T02:31:13;8.70;;;1.73;;
22270;SDS011;11304;53.520;10.104;2024-01-15T02:33:39;7.65;;;1.42;;
22270;SDS011;11304;53.520;10.104;2024-01-15T02:36:07;14.73;;;2.03;;
22270;SDS011;11304;53.520;10.104;2024-01-15T02:38:33;8.68;;;1.63;;
22270;SDS011;11304;53.520;10.104;2024-01-15T02:40:59;7.47;;;1.58;;
22270;SDS011;11304;53.520;10.104;2024-01-15T02:43:25;6.68;;;2.03;;
22270;SDS011;11304;53.520;10.104;2024-01-15T02:45:51;12.32;;;1.73;;
22270;SDS011;11304;53.520;10.104;2024-01-15T02:48:17;10.25;;;2.28;;
22270;SDS011;11304;53.520;10.104;2024-01-15T02:50:43;8.50;;;2.03;;
22270;SDS011;11304;53.520;10.104;2024-01-15T02:53:09;8.35;;;1.63;;
22270;SDS011;11304;53.520;10.104;2024-01-15T02:55:35;8.93;;;1.90;;
22270;SDS011;11304;53.520;10.104;2024-01-15T02:58:03;14.90;;;2.03;;
22270;SDS011;11304;53.520;10.104;2024-01-15T03:00:29;8.55;;;1.88;;
22270;SDS011;11304;53.520;10.104;2024-01-15T03:02:55;12.95;;;2.47;;
22270;SDS011;11304;53.520;10.104;2024-01-15T03:05:21;11.80;;;2.35;;
22270;SDS011;11304;53.520;10.104;2024-01-15T03:07:47;7.07;;;2.00;;
22270;SDS011;11304;53.520;10.104;2024-01-15T03:10:13;13.90;;;2.13;;
22270;SDS011;11304;53.520;10.104;2024-01-15T03:12:39;8.52;;;1.55;;
22270;SDS011;11304;53.520;10.104;2024-01-15T03:15:05;12.20;;;1.70;;
22270;SDS011;11304;53.520;10.104;2024-01-15T03:17:32;9.98;;;2.50;;
22270;SDS011;11304;53.520;10.104;2024-01-15T03:19:58;11.10;;;2.55;;
22270;SDS011;11304;53.520;10.104;2024-01-15T03:22:24;8.45;;;1.92;;
22270;SDS011;11304;53.520;10.104;2024-01-15T03:24:50;13.63;;;1.83;;
22270;SDS011;11304;53.520;10.104;2024-01-15T03:27:16;9.27;;;1.63;;
22270;SDS011;11304;53.520;10.104;2024-01-15T03:29:42;9.52;;;1.98;;
22270;SDS011;11304;53.520;10.104;2024-01-15T03:32:08;9.88;;;2.05;;
22270;SDS011;11304;53.520;10.104;2024-01-15T03:34:34;15.95;;;2.55;;
22270;SDS011;11304;53.520;10.104;2024-01-15T03:37:00;10.98;;;2.05;;
22270;SDS011;11304;53.520;10.104;2024-01-15T03:39:26;11.85;;;3.17;;
22270;SDS011;11304;53.520;10.104;2024-01-15T03:41:52;15.27;;;2.33;;
22270;SDS011;11304;53.520;10.104;2024-01-15T03:47:22;22.20;;;3.30;;
22270;SDS011;11304;53.520;10.104;2024-01-15T03:49:48;10.13;;;2.45;;
22270;SDS011;11304;53.520;10.104;2024-01-15T03:52:14;15.32;;;2.53;;
22270;SDS011;11304;53.520;10.104;2024-01-15T03:54:40;17.48;;;2.95;;
22270;SDS011;11304;53.520;10.104;2024-01-15T03:57:06;16.40;;;2.67;;
22270;SDS011;11304;53.520;10.104;2024-01-15T03:59:32;12.63;;;3.28;;
22270;SDS011;11304;53.520;10.104;2024-01-15T04:01:58;13.20;;;2.80;;
22270;SDS011;11304;53.520;10.104;2024-01-15T04:04:24;17.20;;;2.67;;
22270;SDS011;11304;53.520;10.104;2024-01-15T04:06:50;16.60;;;2.55;;
22270;SDS011;11304;53.520;10.104;2024-01-15T04:09:16;20.15;;;2.67;;
22270;SDS011;11304;53.520;10.104;2024-01-15T04:11:42;15.00;;;2.28;;
22270;SDS011;11304;53.520;10.104;2024-01-15T04:14:08;15.02;;;3.00;;
22270;SDS011;11304;53.520;10.104;2024-01-15T04:16:35;18.58;;;2.53;;
22270;SDS011;11304;53.520;10.104;2024-01-15T04:19:01;18.50;;;2.72;;
22270;SDS011;11304;53.520;10.104;2024-01-15T04:21:27;19.65;;;2.58;;
22270;SDS011;11304;53.520;10.104;2024-01-15T04:23:53;15.48;;;2.25;;
22270;SDS011;11304;53.520;10.104;2024-01-15T04:26:19;23.80;;;3.35;;
22270;SDS011;11304;53.520;10.104;2024-01-15T04:28:45;22.02;;;3.30;;
22270;SDS011;11304;53.520;10.104;2024-01-15T04:31:20;19.83;;;3.42;;
22270;SDS011;11304;53.520;10.104;2024-01-15T04:33:46;22.70;;;3.35;;
22270;SDS011;11304;53.520;10.104;2024-01-15T04:36:12;19.65;;;3.08;;
22270;SDS011;11304;53.520;10.104;2024-01-15T04:38:38;21.60;;;3.65;;
22270;SDS011;11304;53.520;10.104;2024-01-15T04:41:04;23.38;;;3.33;;
22270;SDS011;11304;53.520;10.104;2024-01-15T04:43:30;20.95;;;2.90;;
22270;SDS011;11304;53.520;10.104;2024-01-15T04:45:56;21.25;;;3.30;;
22270;SDS011;11304;53.520;10.104;2024-01-15T04:48:22;20.70;;;3.30;;
22270;SDS011;11304;53.520;10.104;2024-01-15T04:50:48;19.80;;;3.13;;
22270;SDS011;11304;53.520;10.104;2024-01-15T04:53:14;24.40;;;3.38;;
22270;SDS011;11304;53.520;10.104;2024-01-15T04:55:40;22.40;;;3.15;;
22270;SDS011;11304;53.520;10.104;2024-01-15T04:58:06;16.85;;;2.72;;
22270;SDS011;11304;53.520;10.104;2024-01-15T05:00:32;21.48;;;3.55;;
22270;SDS011;11304;53.520;10.104;2024-01-15T05:02:58;16.88;;;2.80;;
22270;SDS011;11304;53.520;10.104;2024-01-15T05:05:24;17.65;;;3.00;;
22270;SDS011;11304;53.520;10.104;2024-01-15T05:07:51;17.33;;;2.40;;
22270;SDS011;11304;53.520;10.104;2024-01-15T05:10:17;24.02;;;3.50;;
22270;SDS011;11304;53.520;10.104;2024-01-15T05:12:43;24.85;;;3.15;;
22270;SDS011;11304;53.520;10.104;2024-01-15T05:15:09;21.65;;;2.85;;
22270;SDS011;11304;53.520;10.104;2024-01-15T05:17:35;18.40;;;3.20;;
22270;SDS011;11304;53.520;10.104;2024-01-15T05:20:01;14.55;;;2.65;;
22270;SDS011;11304;53.520;10.104;2024-01-15T05:22:28;19.63;;;3.20;;
22270;SDS011;11304;53.520;10.104;2024-01-15T05:24:54;22.45;;;3.00;;
22270;SDS011;11304;53.520;10.104;2024-01-15T05:27:20;21.63;;;3.00;;
22270;SDS011;11304;53.520;10.104;2024-01-15T05:29:46;22.08;;;3.80;;
22270;SDS011;11304;53.520;10.104;2024-01-15T05:32:12;17.13;;;2.95;;
22270;SDS011;11304;53.520;10.104;2024-01-15T05:34:38;22.98;;;3.55;;
22270;SDS011;11304;53.520;10.104;2024-01-15T05:37:04;22.95;;;2.78;;
22270;SDS011;11304;53.520;10.104;2024-01-15T05:39:30;18.40;;;2.97;;
22270;SDS011;11304;53.520;10.104;2024-01-15T05:41:57;26.33;;;2.67;;
22270;SDS011;11304;53.520;10.104;2024-01-15T05:44:24;13.93;;;2.58;;
22270;SDS011;11304;53.520;10.104;2024-01-15T05:46:50;22.73;;;3.50;;
22270;SDS011;11304;53.520;10.104;2024-01-15T05:49:16;14.73;;;2.42;;
22270;SDS011;11304;53.520;10.104;2024-01-15T05:51:43;21.10;;;2.92;;
22270;SDS011;11304;53.520;10.104;2024-01-15T05:54:09;27.35;;;4.00;;
22270;SDS011;11304;53.520;10.104;2024-01-15T05:56:35;20.10;;;2.92;;
22270;SDS011;11304;53.520;10.104;2024-01-15T05:59:01;16.55;;;2.80;;
22270;SDS011;11304;53.520;10.104;2024-01-15T06:01:27;16.20;;;2.55;;
22270;SDS011;11304;53.520;10.104;2024-01-15T06:03:53;16.92;;;3.13;;
22270;SDS011;11304;53.520;10.104;2024-01-15T06:06:19;23.33;;;3.10;;
22270;SDS011;11304;53.520;10.104;2024-01-15T06:08:45;21.05;;;3.30;;
22270;SDS011;11304;53.520;10.104;2024-01-15T06:11:11;27.10;;;3.97;;
22270;SDS011;11304;53.520;10.104;2024-01-15T06:13:37;18.58;;;3.17;;
22270;SDS011;11304;53.520;10.104;2024-01-15T06:16:11;25.25;;;3.42;;
22270;SDS011;11304;53.520;10.104;2024-01-15T06:18:37;22.05;;;3.75;;
22270;SDS011;11304;53.520;10.104;2024-01-15T06:21:03;19.73;;;3.88;;
22270;SDS011;11304;53.520;10.104;2024-01-15T06:23:29;17.88;;;3.45;;
22270;SDS011;11304;53.520;10.104;2024-01-15T06:25:55;18.73;;;3.40;;
22270;SDS011;11304;53.520;10.104;2024-01-15T06:28:21;22.33;;;4.35;;
22270;SDS011;11304;53.520;10.104;2024-01-15T06:30:47;22.92;;;3.38;;
22270;SDS011;11304;53.520;10.104;2024-01-15T06:33:13;26.00;;;4.18;;
22270;SDS011;11304;53.520;10.104;2024-01-15T06:35:39;19.15;;;3.40;;
22270;SDS011;11304;53.520;10.104;2024-01-15T06:38:06;23.33;;;3.92;;
22270;SDS011;11304;53.520;10.104;2024-01-15T06:40:32;20.20;;;3.28;;
22270;SDS011;11304;53.520;10.104;2024-01-15T06:42:58;19.05;;;3.40;;
22270;SDS011;11304;53.520;10.104;2024-01-15T06:45:24;19.00;;;3.17;;
22270;SDS011;11304;53.520;10.104;2024-01-15T06:47:50;22.92;;;3.10;;
22270;SDS011;11304;53.520;10.104;2024-01-15T06:50:16;20.10;;;2.97;;
22270;SDS011;11304;53.520;10.104;2024-01-15T06:52:42;20.85;;;2.65;;
22270;SDS011;11304;53.520;10.104;2024-01-15T06:55:08;17.15;;;3.08;;
22270;SDS011;11304;53.520;10.104;2024-01-15T06:57:34;20.17;;;3.22;;
22270;SDS011;11304;53.520;10.104;2024-01-15T07:00:00;12.57;;;2.50;;
22270;SDS011;11304;53.520;10.104;2024-01-15T07:02:26;17.98;;;3.00;;
22270;SDS011;11304;53.520;10.104;2024-01-15T07:04:52;14.23;;;2.72;;
22270;SDS011;11304;53.520;10.104;2024-01-15T07:07:18;15.27;;;2.13;;
22270;SDS011;11304;53.520;10.104;2024-01-15T07:09:44;19.20;;;3.30;;
22270;SDS011;11304;53.520;10.104;2024-01-15T07:12:10;21.95;;;2.88;;
22270;SDS011;11304;53.520;10.104;2024-01-15T07:14:36;19.90;;;2.90;;
22270;SDS011;11304;53.520;10.104;2024-01-15T07:17:02;13.88;;;3.53;;
22270;SDS011;11304;53.520;10.104;2024-01-15T07:19:28;16.60;;;2.38;;
22270;SDS011;11304;53.520;10.104;2024-01-15T07:21:54;16.25;;;2.90;;
22270;SDS011;11304;53.520;10.104;2024-01-15T07:24:20;23.58;;;2.78;;
22270;SDS011;11304;53.520;10.104;2024-01-15T07:26:47;15.95;;;2.60;;
22270;SDS011;11304;53.520;10.104;2024-01-15T07:29:13;15.23;;;2.60;;
22270;SDS011;11304;53.520;10.104;2024-01-15T07:31:39;12.45;;;2.35;;
22270;SDS011;11304;53.520;10.104;2024-01-15T07:34:05;21.17;;;3.10;;
22270;SDS011;11304;53.520;10.104;2024-01-15T07:36:31;19.50;;;2.58;;
22270;SDS011;11304;53.520;10.104;2024-01-15T07:38:57;17.23;;;3.20;;
22270;SDS011;11304;53.520;10.104;2024-01-15T07:41:23;14.48;;;3.10;;
22270;SDS011;11304;53.520;10.104;2024-01-15T07:43:49;13.93;;;2.30;;
22270;SDS011;11304;53.520;10.104;2024-01-15T07:46:15;12.65;;;2.78;;
22270;SDS011;11304;53.520;10.104;2024-01-15T07:48:41;15.40;;;2.25;;
22270;SDS011;11304;53.520;10.104;2024-01-15T07:51:08;18.23;;;2.65;;
22270;SDS011;11304;53.520;10.104;2024-01-15T07:53:34;16.45;;;2.72;;
22270;SDS011;11304;53.520;10.104;2024-01-15T07:56:00;19.30;;;2.70;;
22270;SDS011;11304;53.520;10.104;2024-01-15T07:58:26;17.80;;;2.65;;
22270;SDS011;11304;53.520;10.104;2024-01-15T08:00:52;11.18;;;2.15;;
22270;SDS011;11304;53.520;10.104;2024-01-15T08:03:18;10.02;;;2.20;;
22270;SDS011;11304;53.520;10.104;2024-01-15T08:05:45;14.23;;;2.80;;
22270;SDS011;11304;53.520;10.104;2024-01-15T08:08:11;16.00;;;2.92;;
22270;SDS011;11304;53.520;10.104;2024-01-15T08:10:37;12.63;;;1.73;;
22270;SDS011;11304;53.520;10.104;2024-01-15T08:13:03;10.48;;;1.85;;
22270;SDS011;11304;53.520;10.104;2024-01-15T08:15:30;11.68;;;2.35;;
22270;SDS011;11304;53.520;10.104;2024-01-15T08:17:56;9.77;;;2.05;;
22270;SDS011;11304;53.520;10.104;2024-01-15T08:20:22;17.55;;;2.17;;
22270;SDS011;11304;53.520;10.104;2024-01-15T08:22:48;9.82;;;2.22;;
22270;SDS011;11304;53.520;10.104;2024-01-15T08:25:14;17.33;;;2.58;;
22270;SDS011;11304;53.520;10.104;2024-01-15T08:27:40;9.45;;;1.88;;
22270;SDS011;11304;53.520;10.104;2024-01-15T08:30:06;13.10;;;2.47;;
22270;SDS011;11304;53.520;10.104;2024-01-15T08:32:32;8.32;;;2.50;;
22270;SDS011;11304;53.520;10.104;2024-01-15T08:35:01;12.95;;;2.65;;
22270;SDS011;11304;53.520;10.104;2024-01-15T08:37:29;9.63;;;1.60;;
22270;SDS011;11304;53.520;10.104;2024-01-15T08:39:55;12.65;;;2.03;;
22270;SDS011;11304;53.520;10.104;2024-01-15T08:42:21;12.30;;;1.90;;
22270;SDS011;11304;53.520;10.104;2024-01-15T08:44:47;10.15;;;1.65;;
22270;SDS011;11304;53.520;10.104;2024-01-15T08:47:13;10.63;;;1.98;;
22270;SDS011;11304;53.520;10.104;2024-01-15T08:49:39;9.65;;;1.58;;
22270;SDS011;11304;53.520;10.104;2024-01-15T08:52:05;13.43;;;2.30;;
22270;SDS011;11304;53.520;10.104;2024-01-15T08:54:32;9.70;;;2.00;;
22270;SDS011;11304;53.520;10.104;2024-01-15T08:56:58;10.77;;;2.03;;
22270;SDS011;11304;53.520;10.104;2024-01-15T08:59:24;9.65;;;1.88;;
22270;SDS011;11304;53.520;10.104;2024-01-15T09:01:51;12.77;;;2.20;;
22270;SDS011;11304;53.520;10.104;2024-01-15T09:04:18;13.60;;;2.33;;
22270;SDS011;11304;53.520;10.104;2024-01-15T09:06:47;15.18;;;2.20;;
22270;SDS011;11304;53.520;10.104;2024-01-15T09:09:13;11.52;;;1.90;;
22270;SDS011;11304;53.520;10.104;2024-01-15T09:11:40;12.15;;;1.92;;
22270;SDS011;11304;53.520;10.104;2024-01-15T09:14:06;7.40;;;1.92;;
22270;SDS011;11304;53.520;10.104;2024-01-15T09:16:33;10.85;;;2.38;;
22270;SDS011;11304;53.520;10.104;2024-01-15T09:18:59;13.88;;;2.53;;
22270;SDS011;11304;53.520;10.104;2024-01-15T09:21:25;10.35;;;2.00;;
22270;SDS011;11304;53.520;10.104;2024-01-15T09:23:51;11.15;;;1.92;;
22270;SDS011;11304;53.520;10.104;2024-01-15T09:26:17;11.88;;;1.83;;
22270;SDS011;11304;53.520;10.104;2024-01-15T09:28:43;10.18;;;2.22;;
22270;SDS011;11304;53.520;10.104;2024-01-15T09:31:10;10.52;;;2.20;;
22270;SDS011;11304;53.520;10.104;2024-01-15T09:33:36;10.18;;;2.15;;
22270;SDS011;11304;53.520;10.104;2024-01-15T09:36:03;6.95;;;1.55;;
22270;SDS011;11304;53.520;10.104;2024-01-15T09:38:29;6.35;;;1.67;;
22270;SDS011;11304;53.520;10.104;2024-01-15T09:40:56;14.48;;;2.08;;
22270;SDS011;11304;53.520;10.104;2024-01-15T09:43:23;7.30;;;1.67;;
22270;SDS011;11304;53.520;10.104;2024-01-15T09:45:49;7.07;;;2.05;;
22270;SDS011;11304;53.520;10.104;2024-01-15T09:48:16;15.15;;;2.85;;
22270;SDS011;11304;53.520;10.104;2024-01-15T09:50:42;10.70;;;2.65;;
22270;SDS011;11304;53.520;10.104;2024-01-15T09:53:08;12.73;;;2.50;;
22270;SDS011;11304;53.520;10.104;2024-01-15T09:55:37;6.25;;;1.77;;
22270;SDS011;11304;53.520;10.104;2024-01-15T09:58:03;11.55;;;2.40;;
22270;SDS011;11304;53.520;10.104;2024-01-15T10:00:29;13.18;;;2.33;;
22270;SDS011;11304;53.520;10.104;2024-01-15T10:02:56;10.35;;;2.45;;
22270;SDS011;11304;53.520;10.104;2024-01-15T10:05:22;11.35;;;2.53;;
22270;SDS011;11304;53.520;10.104;2024-01-15T10:07:48;7.95;;;1.80;;
22270;SDS011;11304;53.520;10.104;2024-01-15T10:10:15;4.60;;;1.58;;
22270;SDS011;11304;53.520;10.104;2024-01-15T10:12:41;9.38;;;1.73;;
22270;SDS011;11304;53.520;10.104;2024-01-15T10:15:11;7.38;;;1.38;;
22270;SDS011;11304;53.520;10.104;2024-01-15T10:17:38;8.65;;;1.67;;
22270;SDS011;11304;53.520;10.104;2024-01-15T10:20:08;8.50;;;1.55;;
22270;SDS011;11304;53.520;10.104;2024-01-15T10:22:35;6.85;;;1.38;;
22270;SDS011;11304;53.520;10.104;2024-01-15T10:25:04;4.32;;;0.98;;
22270;SDS011;11304;53.520;10.104;2024-01-15T10:27:30;6.55;;;1.42;;
22270;SDS011;11304;53.520;10.104;2024-01-15T10:29:59;8.10;;;1.63;;
22270;SDS011;11304;53.520;10.104;2024-01-15T10:32:28;6.90;;;1.75;;
22270;SDS011;11304;53.520;10.104;2024-01-15T10:34:54;4.25;;;1.52;;
22270;SDS011;11304;53.520;10.104;2024-01-15T10:37:21;6.25;;;1.83;;
22270;SDS011;11304;53.520;10.104;2024-01-15T10:39:47;7.22;;;1.60;;
22270;SDS011;11304;53.520;10.104;2024-01-15T10:42:13;4.93;;;1.35;;
22270;SDS011;11304;53.520;10.104;2024-01-15T10:44:39;5.22;;;1.73;;
22270;SDS011;11304;53.520;10.104;2024-01-15T10:47:05;10.68;;;1.70;;
22270;SDS011;11304;53.520;10.104;2024-01-15T10:49:31;5.03;;;1.20;;
22270;SDS011;11304;53.520;10.104;2024-01-15T10:51:57;5.13;;;1.33;;
22270;SDS011;11304;53.520;10.104;2024-01-15T10:54:23;10.50;;;1.73;;
22270;SDS011;11304;53.520;10.104;2024-01-15T10:56:50;5.97;;;1.80;;
22270;SDS011;11304;53.520;10.104;2024-01-15T10:59:16;12.30;;;2.03;;
22270;SDS011;11304;53.520;10.104;2024-01-15T11:01:44;6.10;;;0.98;;
22270;SDS011;11304;53.520;10.104;2024-01-15T11:04:11;6.22;;;1.48;;
22270;SDS011;11304;53.520;10.104;2024-01-15T11:06:41;6.50;;;1.10;;
22270;SDS011;11304;53.520;10.104;2024-01-15T11:09:07;8.18;;;1.50;;
22270;SDS011;11304;53.520;10.104;2024-01-15T11:11:39;10.25;;;1.75;;
22270;SDS011;11304;53.520;10.104;2024-01-15T11:14:06;4.28;;;1.63;;
22270;SDS011;11304;53.520;10.104;2024-01-15T11:19:17;3.55;;;1.20;;
22270;SDS011;11304;53.520;10.104;2024-01-15T11:21:44;4.53;;;1.30;;
22270;SDS011;11304;53.520;10.104;2024-01-15T11:24:10;8.10;;;1.33;;
22270;SDS011;11304;53.520;10.104;2024-01-15T11:29:07;2.10;;;1.08;;
22270;SDS011;11304;53.520;10.104;2024-01-15T11:34:02;6.60;;;2.60;;
22270;SDS011;11304;53.520;10.104;2024-01-15T11:41:58;10.77;;;3.60;;
22270;SDS011;11304;53.520;10.104;2024-01-15T11:44:24;12.60;;;3.92;;
22270;SDS011;11304;53.520;10.104;2024-01-15T11:49:51;6.43;;;3.30;;
22270;SDS011;11304;53.520;10.104;2024-01-15T11:52:10;8.43;;;4.00;;
22270;SDS011;11304;53.520;10.104;2024-01-15T11:54:40;13.55;;;4.20;;
22270;SDS011;11304;53.520;10.104;2024-01-15T11:57:09;8.35;;;3.25;;
22270;SDS011;11304;53.520;10.104;2024-01-15T11:59:35;5.93;;;3.20;;
22270;SDS011;11304;53.520;10.104;2024-01-15T12:02:02;9.80;;;3.33;;
22270;SDS011;11304;53.520;10.104;2024-01-15T12:04:28;5.63;;;2.53;;
22270;SDS011;11304;53.520;10.104;2024-01-15T12:06:54;8.23;;;2.78;;
22270;SDS011;11304;53.520;10.104;2024-01-15T12:09:20;6.03;;;2.40;;
22270;SDS011;11304;53.520;10.104;2024-01-15T12:11:48;6.32;;;2.28;;
22270;SDS011;11304;53.520;10.104;2024-01-15T12:14:16;5.18;;;2.30;;
22270;SDS011;11304;53.520;10.104;2024-01-15T12:16:42;5.20;;;2.40;;
22270;SDS011;11304;53.520;10.104;2024-01-15T12:19:09;5.68;;;2.10;;
22270;SDS011;11304;53.520;10.104;2024-01-15T12:21:35;6.35;;;2.30;;
22270;SDS011;11304;53.520;10.104;2024-01-15T12:24:01;3.20;;;2.15;;
22270;SDS011;11304;53.520;10.104;2024-01-15T12:26:27;4.07;;;2.20;;
22270;SDS011;11304;53.520;10.104;2024-01-15T12:28:53;4.00;;;1.83;;
22270;SDS011;11304;53.520;10.104;2024-01-15T12:31:20;4.30;;;1.98;;
22270;SDS011;11304;53.520;10.104;2024-01-15T12:33:46;7.07;;;1.90;;
22270;SDS011;11304;53.520;10.104;2024-01-15T12:36:13;5.95;;;2.08;;
22270;SDS011;11304;53.520;10.104;2024-01-15T12:38:39;6.38;;;2.03;;
22270;SDS011;11304;53.520;10.104;2024-01-15T12:41:05;7.82;;;2.10;;
22270;SDS011;11304;53.520;10.104;2024-01-15T12:43:31;5.85;;;1.42;;
22270;SDS011;11304;53.520;10.104;2024-01-15T12:45:57;3.38;;;0.98;;
22270;SDS011;11304;53.520;10.104;2024-01-15T12:48:23;6.43;;;1.00;;
22270;SDS011;11304;53.520;10.104;2024-01-15T12:50:51;3.20;;;1.13;;
22270;SDS011;11304;53.520;10.104;2024-01-15T12:53:17;3.65;;;1.10;;
22270;SDS011;11304;53.520;10.104;2024-01-15T12:55:43;6.70;;;1.00;;
22270;SDS011;11304;53.520;10.104;2024-01-15T12:58:09;3.03;;;1.38;;
22270;SDS011;11304;53.520;10.104;2024-01-15T13:00:35;3.42;;;1.67;;
22270;SDS011;11304;53.520;10.104;2024-01-15T13:03:02;3.67;;;1.55;;
22270;SDS011;11304;53.520;10.104;2024-01-15T13:05:28;3.08;;;1.55;;
22270;SDS011;11304;53.520;10.104;2024-01-15T13:07:55;2.13;;;1.50;;
22270;SDS011;11304;53.520;10.104;2024-01-15T13:10:21;4.25;;;2.25;;
22270;SDS011;11304;53.520;10.104;2024-01-15T13:12:47;3.53;;;2.33;;
22270;SDS011;11304;53.520;10.104;2024-01-15T13:15:13;6.07;;;2.92;;
22270;SDS011;11304;53.520;10.104;2024-01-15T13:17:39;4.25;;;3.20;;
22270;SDS011;11304;53.520;10.104;2024-01-15T13:20:06;7.22;;;3.10;;
22270;SDS011;11304;53.520;10.104;2024-01-15T13:22:33;6.43;;;3.20;;
22270;SDS011;11304;53.520;10.104;2024-01-15T13:24:59;9.45;;;2.92;;
22270;SDS011;11304;53.520;10.104;2024-01-15T13:27:25;9.25;;;3.30;;
22270;SDS011;11304;53.520;10.104;2024-01-15T13:29:51;9.18;;;3.10;;
22270;SDS011;11304;53.520;10.104;2024-01-15T13:32:21;6.50;;;3.20;;
22270;SDS011;11304;53.520;10.104;2024-01-15T13:34:48;3.95;;;2.63;;
22270;SDS011;11304;53.520;10.104;2024-01-15T13:37:14;5.63;;;3.28;;
22270;SDS011;11304;53.520;10.104;2024-01-15T13:39:40;7.35;;;3.03;;
22270;SDS011;11304;53.520;10.104;2024-01-15T13:42:06;6.07;;;3.05;;
22270;SDS011;11304;53.520;10.104;2024-01-15T13:44:32;11.05;;;3.25;;
22270;SDS011;11304;53.520;10.104;2024-01-15T13:46:58;9.40;;;3.28;;
22270;SDS011;11304;53.520;10.104;2024-01-15T13:49:24;8.07;;;2.80;;
22270;SDS011;11304;53.520;10.104;2024-01-15T13:51:51;15.80;;;4.22;;
22270;SDS011;11304;53.520;10.104;2024-01-15T13:54:17;8.40;;;3.70;;
22270;SDS011;11304;53.520;10.104;2024-01-15T13:56:45;7.68;;;3.20;;
22270;SDS011;11304;53.520;10.104;2024-01-15T13:59:12;5.38;;;3.03;;
22270;SDS011;11304;53.520;10.104;2024-01-15T14:01:38;10.13;;;3.22;;
22270;SDS011;11304;53.520;10.104;2024-01-15T14:04:04;6.88;;;3.45;;
22270;SDS011;11304;53.520;10.104;2024-01-15T14:06:30;7.00;;;2.88;;
22270;SDS011;11304;53.520;10.104;2024-01-15T14:08:56;3.85;;;2.83;;
22270;SDS011;11304;53.520;10.104;2024-01-15T14:11:22;5.30;;;3.05;;
22270;SDS011;11304;53.520;10.104;2024-01-15T14:13:48;4.97;;;3.05;;
22270;SDS011;11304;53.520;10.104;2024-01-15T14:16:14;4.22;;;2.92;;
22270;SDS011;11304;53.520;10.104;2024-01-15T14:18:40;8.13;;;3.60;;
22270;SDS011;11304;53.520;10.104;2024-01-15T14:21:07;6.68;;;3.33;;
22270;SDS011;11304;53.520;10.104;2024-01-15T14:23:33;7.97;;;3.13;;
22270;SDS011;11304;53.520;10.104;2024-01-15T14:25:59;6.03;;;3.55;;
22270;SDS011;11304;53.520;10.104;2024-01-15T14:28:25;7.82;;;3.00;;
22270;SDS011;11304;53.520;10.104;2024-01-15T14:30:51;4.47;;;2.92;;
22270;SDS011;11304;53.520;10.104;2024-01-15T14:33:17;5.43;;;2.63;;
22270;SDS011;11304;53.520;10.104;2024-01-15T14:35:43;11.93;;;2.95;;
22270;SDS011;11304;53.520;10.104;2024-01-15T14:38:09;9.95;;;3.10;;
22270;SDS011;11304;53.520;10.104;2024-01-15T14:40:35;7.05;;;3.50;;